Time;durP1;ratioP1;P1;durP2;ratioP2;P2;SDS_P1;SDS_P2;PMS_P1;PMS_P2;Temp;Humidity;BMP_temperature;BMP_pressure;BME280_temperature;BME280_humidity;BME280_pressure;Samples;Min_cycle;Max_cycle;Signal;HPM_P1;HPM_P2
2024/03/29 01:45:10;;;;;;;0.73;0.60;;;;;;;;;;5000763;28;20099;-61
2024/03/29 01:47:39;;;;;;;0.60;0.60;;;;;;;;;;5003256;28;20065;-60
2024/03/29 01:50:06;;;;;;;0.60;0.60;;;;;;;;;;5004131;28;20494;-61
2024/03/29 01:52:34;;;;;;;0.50;0.50;;;;;;;;;;5005135;28;20122;-64
2024/03/29 01:55:02;;;;;;;0.95;0.57;;;;;;;;;;5005532;28;20054;-60
2024/03/29 01:57:29;;;;;;;0.60;0.60;;;;;;;;;;5004896;28;20057;-60
2024/03/29 01:59:58;;;;;;;0.68;0.60;;;;;;;;;;5006279;28;20452;-60
2024/03/29 02:02:25;;;;;;;0.63;0.63;;;;;;;;;;5003819;28;20053;-64
2024/03/29 02:04:55;;;;;;;0.63;0.63;;;;;;;;;;5004966;28;20099;-61
2024/03/29 02:07:22;;;;;;;0.85;0.75;;;;;;;;;;5003829;28;20037;-62
2024/03/29 02:09:49;;;;;;;0.80;0.70;;;;;;;;;;5005627;28;20413;-60
2024/03/29 02:12:17;;;;;;;0.60;0.60;;;;;;;;;;5005209;28;20516;-60
2024/03/29 02:14:44;;;;;;;0.60;0.60;;;;;;;;;;5005207;28;20057;-63
2024/03/29 02:17:12;;;;;;;0.50;0.50;;;;;;;;;;5002177;28;20037;-62
2024/03/29 02:19:39;;;;;;;0.68;0.60;;;;;;;;;;5004339;28;20506;-66
2024/03/29 02:22:09;;;;;;;0.60;0.60;;;;;;;;;;5005216;28;20050;-60
2024/03/29 02:24:38;;;;;;;0.70;0.70;;;;;;;;;;5005322;28;20050;-60
2024/03/29 02:27:05;;;;;;;0.60;0.60;;;;;;;;;;5002708;28;20049;-61
2024/03/29 02:29:33;;;;;;;0.73;0.70;;;;;;;;;;5004592;28;20054;-64
2024/03/29 02:32:00;;;;;;;0.60;0.60;;;;;;;;;;5008086;28;20520;-64
2024/03/29 02:34:28;;;;;;;0.88;0.70;;;;;;;;;;5005093;28;20049;-61
2024/03/29 02:36:56;;;;;;;0.60;0.60;;;;;;;;;;4998273;28;20099;-60
2024/03/29 02:39:24;;;;;;;1.33;0.70;;;;;;;;;;5004096;28;20604;-60
2024/03/29 02:41:53;;;;;;;0.70;0.70;;;;;;;;;;5003742;28;20058;-61
2024/03/29 02:44:20;;;;;;;0.95;0.73;;;;;;;;;;5004107;28;20042;-61
2024/03/29 02:46:47;;;;;;;0.68;0.68;;;;;;;;;;5003090;28;20060;-60
2024/03/29 02:49:14;;;;;;;1.10;0.80;;;;;;;;;;5004027;28;20127;-63
2024/03/29 02:51:41;;;;;;;0.70;0.70;;;;;;;;;;5004731;28;20812;-61
2024/03/29 02:54:08;;;;;;;0.88;0.80;;;;;;;;;;5003223;28;20057;-62
2024/03/29 02:56:35;;;;;;;0.80;0.80;;;;;;;;;;5004015;28;20067;-63
2024/03/29 02:59:03;;;;;;;1.27;0.70;;;;;;;;;;5004063;28;20053;-62
2024/03/29 03:01:30;;;;;;;0.60;0.60;;;;;;;;;;5001676;28;20479;-60
2024/03/29 03:03:57;;;;;;;0.60;0.60;;;;;;;;;;4993254;28;20050;-60
2024/03/29 03:06:24;;;;;;;0.70;0.60;;;;;;;;;;5003961;28;20042;-61
2024/03/29 03:11:36;;;;;;;0.80;0.80;;;;;;;;;;4999870;28;20058;-61
2024/03/29 03:14:05;;;;;;;0.70;0.70;;;;;;;;;;5003730;28;20419;-60
2024/03/29 03:16:32;;;;;;;1.58;0.80;;;;;;;;;;5001456;28;20069;-60
2024/03/29 03:18:59;;;;;;;0.93;0.80;;;;;;;;;;5003933;28;20430;-60
2024/03/29 03:21:26;;;;;;;0.85;0.85;;;;;;;;;;5003079;28;20046;-61
2024/03/29 03:23:53;;;;;;;0.73;0.73;;;;;;;;;;5003407;28;20046;-64
2024/03/29 03:26:19;;;;;;;1.00;0.90;;;;;;;;;;5002600;28;20091;-65
2024/03/29 03:28:47;;;;;;;0.90;0.75;;;;;;;;;;5003615;28;20440;-60
2024/03/29 03:31:14;;;;;;;0.80;0.80;;;;;;;;;;5003111;28;20050;-66
2024/03/29 03:33:42;;;;;;;0.80;0.80;;;;;;;;;;5004148;28;20054;-62
2024/03/29 03:36:08;;;;;;;0.70;0.70;;;;;;;;;;5003019;28;20049;-62
2024/03/29 03:38:37;;;;;;;0.90;0.90;;;;;;;;;;5004141;28;20239;-63
2024/03/29 03:41:04;;;;;;;2.42;0.90;;;;;;;;;;5007346;28;20054;-62
2024/03/29 03:43:31;;;;;;;1.05;0.70;;;;;;;;;;5003320;28;20042;-60
2024/03/29 03:46:00;;;;;;;0.57;0.57;;;;;;;;;;5016297;28;20080;-63
2024/03/29 03:48:29;;;;;;;0.70;0.70;;;;;;;;;;5005550;28;20076;-63
2024/03/29 03:50:56;;;;;;;0.70;0.70;;;;;;;;;;5006665;28;20061;-62
2024/03/29 03:53:23;;;;;;;0.70;0.70;;;;;;;;;;5007340;28;20512;-61
2024/03/29 03:55:50;;;;;;;1.27;0.80;;;;;;;;;;5006327;28;20053;-60
2024/03/29 03:58:17;;;;;;;0.60;0.60;;;;;;;;;;5007759;28;20114;-65
2024/03/29 04:00:43;;;;;;;0.73;0.70;;;;;;;;;;5005628;28;20122;-64
2024/03/29 04:03:11;;;;;;;0.65;0.65;;;;;;;;;;4998445;28;20131;-62
2024/03/29 04:05:39;;;;;;;0.70;0.70;;;;;;;;;;5002852;28;20065;-62
2024/03/29 04:08:06;;;;;;;0.60;0.60;;;;;;;;;;5006644;28;20042;-61
2024/03/29 04:10:33;;;;;;;0.70;0.70;;;;;;;;;;5000690;28;20107;-61
2024/03/29 04:13:00;;;;;;;0.70;0.70;;;;;;;;;;5006609;28;20042;-62
2024/03/29 04:15:26;;;;;;;0.70;0.70;;;;;;;;;;5006324;28;20149;-61
2024/03/29 04:17:54;;;;;;;0.70;0.70;;;;;;;;;;5004993;28;20075;-61
2024/03/29 04:20:20;;;;;;;0.82;0.80;;;;;;;;;;5006139;28;20046;-60
2024/03/29 04:22:49;;;;;;;0.60;0.60;;;;;;;;;;5005629;28;20075;-61
2024/03/29 04:25:15;;;;;;;0.50;0.50;;;;;;;;;;5005951;28;20106;-63
2024/03/29 04:27:43;;;;;;;0.77;0.77;;;;;;;;;;5004160;28;20788;-62
2024/03/29 04:30:09;;;;;;;0.60;0.60;;;;;;;;;;5006193;28;20053;-60
2024/03/29 04:32:37;;;;;;;0.70;0.70;;;;;;;;;;5006099;28;20046;-61
2024/03/29 04:35:03;;;;;;;0.70;0.70;;;;;;;;;;4995178;28;20558;-61
2024/03/29 04:37:31;;;;;;;0.85;0.70;;;;;;;;;;5005795;28;20511;-61
2024/03/29 04:40:00;;;;;;;0.70;0.70;;;;;;;;;;5004729;28;20065;-62
2024/03/29 04:42:27;;;;;;;0.93;0.75;;;;;;;;;;5004478;28;20061;-64
2024/03/29 04:44:54;;;;;;;0.70;0.70;;;;;;;;;;5016898;28;20064;-61
2024/03/29 04:47:22;;;;;;;0.70;0.70;;;;;;;;;;5006154;28;20057;-60
2024/03/29 04:49:49;;;;;;;0.60;0.60;;;;;;;;;;5005786;28;20050;-61
2024/03/29 04:52:17;;;;;;;1.00;0.70;;;;;;;;;;5004462;28;20422;-60
2024/03/29 04:54:44;;;;;;;0.85;0.85;;;;;;;;;;5004743;28;20057;-69
2024/03/29 04:57:13;;;;;;;0.80;0.80;;;;;;;;;;5005572;28;20046;-67
2024/03/29 04:59:41;;;;;;;0.75;0.68;;;;;;;;;;5005615;28;20057;-61
2024/03/29 05:02:08;;;;;;;0.70;0.70;;;;;;;;;;5004317;28;20099;-61
2024/03/29 05:04:35;;;;;;;0.73;0.70;;;;;;;;;;5006046;28;20115;-60
2024/03/29 05:07:03;;;;;;;0.88;0.80;;;;;;;;;;5004727;28;20492;-62
2024/03/29 05:09:31;;;;;;;0.80;0.80;;;;;;;;;;5004279;28;20060;-61
2024/03/29 05:11:58;;;;;;;0.75;0.75;;;;;;;;;;5000521;28;20498;-62
2024/03/29 05:14:27;;;;;;;0.80;0.80;;;;;;;;;;5006358;28;20076;-62
2024/03/29 05:16:54;;;;;;;0.80;0.80;;;;;;;;;;5002998;28;20100;-63
2024/03/29 05:19:21;;;;;;;0.68;0.68;;;;;;;;;;5005550;28;20053;-62
2024/03/29 05:21:49;;;;;;;0.70;0.70;;;;;;;;;;5005292;28;20141;-61
2024/03/29 05:24:17;;;;;;;0.80;0.80;;;;;;;;;;5003128;28;20491;-60
2024/03/29 05:26:45;;;;;;;0.82;0.70;;;;;;;;;;5003805;28;20073;-60
2024/03/29 05:29:12;;;;;;;1.15;0.88;;;;;;;;;;4993949;28;20054;-60
2024/03/29 05:31:41;;;;;;;0.90;0.90;;;;;;;;;;5005290;28;20049;-63
2024/03/29 05:34:09;;;;;;;0.80;0.80;;;;;;;;;;5004899;28;20046;-60
2024/03/29 05:36:36;;;;;;;0.82;0.82;;;;;;;;;;5004567;28;20193;-61
2024/03/29 05:39:04;;;;;;;0.80;0.80;;;;;;;;;;5006295;28;20178;-61
2024/03/29 05:41:32;;;;;;;0.80;0.80;;;;;;;;;;5006404;28;20054;-60
2024/03/29 05:43:59;;;;;;;1.35;1.15;;;;;;;;;;5005153;28;20092;-64
2024/03/29 05:46:27;;;;;;;0.70;0.70;;;;;;;;;;5004615;28;20494;-64
2024/03/29 05:48:55;;;;;;;0.95;0.80;;;;;;;;;;5003956;28;20058;-63
2024/03/29 05:51:23;;;;;;;0.98;0.80;;;;;;;;;;5010552;28;20328;-61
2024/03/29 05:53:50;;;;;;;0.80;0.80;;;;;;;;;;5005826;28;20072;-64
2024/03/29 05:56:18;;;;;;;0.80;0.80;;;;;;;;;;5005229;28;20506;-61
2024/03/29 05:58:45;;;;;;;0.80;0.80;;;;;;;;;;5004458;28;20050;-60
2024/03/29 06:01:13;;;;;;;1.02;0.90;;;;;;;;;;5005325;28;20042;-60
2024/03/29 06:03:40;;;;;;;0.70;0.70;;;;;;;;;;5004172;28;20049;-60
2024/03/29 06:06:15;;;;;;;0.80;0.80;;;;;;;;;;5005017;28;20061;-61
2024/03/29 06:08:43;;;;;;;0.85;0.77;;;;;;;;;;5006327;28;20084;-63
2024/03/29 06:11:10;;;;;;;0.70;0.70;;;;;;;;;;5003555;28;20060;-64
2024/03/29 06:19:08;;;;;;;;;;;;;;;;;;5001196;28;20104;-60
2024/03/29 06:21:39;;;;;;;2.25;0.80;;;;;;;;;;5004509;28;19922;-61
2024/03/29 06:24:07;;;;;;;0.80;0.80;;;;;;;;;;5004038;28;20061;-60
2024/03/29 06:26:34;;;;;;;0.90;0.90;;;;;;;;;;5091053;27;20049;-61
2024/03/29 06:29:02;;;;;;;1.10;0.90;;;;;;;;;;5004760;28;20066;-60
2024/03/29 06:31:29;;;;;;;0.80;0.80;;;;;;;;;;5003457;28;20068;-62
2024/03/29 06:33:57;;;;;;;1.15;0.88;;;;;;;;;;5005376;28;20058;-63
2024/03/29 06:36:25;;;;;;;1.08;0.95;;;;;;;;;;5004657;28;20479;-61
2024/03/29 06:38:54;;;;;;;1.33;1.02;;;;;;;;;;5005356;28;20487;-60
2024/03/29 06:41:21;;;;;;;1.20;1.10;;;;;;;;;;5004553;28;20058;-59
2024/03/29 06:43:48;;;;;;;0.80;0.80;;;;;;;;;;5004841;28;20050;-59
2024/03/29 06:46:16;;;;;;;1.10;0.95;;;;;;;;;;5003429;28;20502;-61
2024/03/29 06:48:44;;;;;;;0.80;0.80;;;;;;;;;;5004219;28;20050;-63
2024/03/29 06:51:11;;;;;;;0.80;0.80;;;;;;;;;;5005764;28;20103;-60
2024/03/29 06:53:39;;;;;;;0.90;0.80;;;;;;;;;;5004448;28;20054;-60
2024/03/29 06:56:08;;;;;;;1.15;0.80;;;;;;;;;;5003478;28;20054;-61
2024/03/29 06:58:35;;;;;;;1.15;1.00;;;;;;;;;;5004124;28;20042;-61
2024/03/29 07:01:02;;;;;;;1.02;0.93;;;;;;;;;;5004810;28;20049;-61
2024/03/29 07:03:30;;;;;;;0.85;0.80;;;;;;;;;;5003976;28;20050;-61
2024/03/29 07:05:57;;;;;;;1.05;0.90;;;;;;;;;;5004036;28;20058;-60
2024/03/29 07:08:25;;;;;;;2.47;1.23;;;;;;;;;;5004569;28;20061;-60
2024/03/29 07:10:59;;;;;;;1.30;0.98;;;;;;;;;;5003860;28;20084;-65
2024/03/29 07:13:29;;;;;;;1.10;1.00;;;;;;;;;;5003887;28;20471;-60
2024/03/29 07:15:56;;;;;;;1.10;1.00;;;;;;;;;;4996176;28;20042;-60
2024/03/29 07:18:24;;;;;;;0.73;0.73;;;;;;;;;;5006259;28;20044;-60
2024/03/29 07:20:51;;;;;;;1.13;0.93;;;;;;;;;;5002742;28;20498;-60
2024/03/29 07:23:19;;;;;;;0.98;0.90;;;;;;;;;;5007424;28;20057;-64
2024/03/29 07:25:46;;;;;;;1.20;1.08;;;;;;;;;;5031663;28;20054;-62
2024/03/29 07:28:14;;;;;;;1.10;0.90;;;;;;;;;;5004631;28;20054;-61
2024/03/29 07:30:44;;;;;;;0.80;0.80;;;;;;;;;;5009814;28;20095;-61
2024/03/29 07:33:15;;;;;;;1.10;1.00;;;;;;;;;;5017854;28;20057;-60
2024/03/29 07:35:42;;;;;;;1.20;0.98;;;;;;;;;;5034171;28;20435;-63
2024/03/29 07:38:10;;;;;;;1.30;0.93;;;;;;;;;;5032872;28;20050;-63
2024/03/29 07:40:37;;;;;;;1.70;1.02;;;;;;;;;;5005086;28;20205;-62
2024/03/29 07:43:05;;;;;;;1.63;1.10;;;;;;;;;;5005276;28;20564;-60
2024/03/29 07:45:32;;;;;;;1.10;1.00;;;;;;;;;;5004921;28;20057;-61
2024/03/29 07:48:01;;;;;;;1.52;1.00;;;;;;;;;;5005015;28;20069;-62
2024/03/29 07:50:28;;;;;;;0.82;0.80;;;;;;;;;;5019423;28;20154;-61
2024/03/29 07:52:56;;;;;;;0.82;0.82;;;;;;;;;;5012778;28;20548;-61
2024/03/29 07:55:23;;;;;;;0.85;0.85;;;;;;;;;;5030370;28;20044;-61
2024/03/29 07:57:51;;;;;;;0.75;0.75;;;;;;;;;;5008899;28;20050;-64
2024/03/29 08:00:19;;;;;;;0.70;0.70;;;;;;;;;;5007383;28;20062;-62
2024/03/29 08:02:46;;;;;;;1.17;0.98;;;;;;;;;;5004667;28;20049;-65
2024/03/29 08:05:15;;;;;;;0.77;0.77;;;;;;;;;;5023713;28;20054;-63
2024/03/29 08:07:42;;;;;;;0.60;0.60;;;;;;;;;;5004446;28;20049;-63
2024/03/29 08:10:10;;;;;;;0.93;0.80;;;;;;;;;;5008275;28;20096;-64
2024/03/29 08:12:38;;;;;;;0.70;0.70;;;;;;;;;;5005151;28;20145;-61
2024/03/29 08:15:06;;;;;;;0.60;0.60;;;;;;;;;;5015027;28;20047;-64
2024/03/29 08:17:33;;;;;;;1.02;0.65;;;;;;;;;;5001948;28;20510;-62
2024/03/29 08:20:01;;;;;;;0.50;0.50;;;;;;;;;;5010982;28;20460;-61
2024/03/29 08:22:32;;;;;;;0.50;0.50;;;;;;;;;;5014119;28;20617;-61
2024/03/29 08:24:59;;;;;;;0.65;0.50;;;;;;;;;;5017049;28;20056;-61
2024/03/29 08:27:27;;;;;;;0.68;0.60;;;;;;;;;;5000088;28;20042;-62
2024/03/29 08:29:54;;;;;;;1.20;0.80;;;;;;;;;;5006493;28;20106;-66
2024/03/29 08:32:22;;;;;;;0.65;0.65;;;;;;;;;;5004983;28;20050;-64
2024/03/29 08:34:49;;;;;;;0.68;0.63;;;;;;;;;;5005346;28;20050;-60
2024/03/29 08:37:17;;;;;;;0.50;0.40;;;;;;;;;;5009998;28;20046;-63
2024/03/29 08:39:46;;;;;;;1.25;0.60;;;;;;;;;;5003903;28;20498;-61
2024/03/29 08:42:13;;;;;;;0.57;0.57;;;;;;;;;;5006956;28;20061;-61
2024/03/29 08:44:41;;;;;;;0.63;0.50;;;;;;;;;;5005239;28;20542;-61
2024/03/29 08:47:10;;;;;;;0.95;0.60;;;;;;;;;;5004349;28;20045;-62
2024/03/29 08:49:38;;;;;;;0.70;0.50;;;;;;;;;;5003753;28;20486;-62
2024/03/29 08:52:05;;;;;;;0.70;0.70;;;;;;;;;;5005700;28;20410;-63
2024/03/29 08:54:33;;;;;;;0.55;0.55;;;;;;;;;;5002992;28;20055;-64
2024/03/29 08:57:03;;;;;;;0.57;0.57;;;;;;;;;;5005506;28;20494;-65
2024/03/29 08:59:30;;;;;;;0.70;0.45;;;;;;;;;;5005116;28;20490;-64
2024/03/29 09:02:05;;;;;;;0.63;0.60;;;;;;;;;;5006140;28;20054;-61
2024/03/29 09:04:33;;;;;;;0.50;0.50;;;;;;;;;;5006091;28;20054;-63
2024/03/29 09:07:02;;;;;;;0.85;0.60;;;;;;;;;;5004909;28;20042;-64
2024/03/29 09:09:29;;;;;;;1.52;0.60;;;;;;;;;;5000697;28;20050;-60
2024/03/29 09:11:57;;;;;;;0.50;0.50;;;;;;;;;;5004633;28;20087;-62
2024/03/29 09:14:26;;;;;;;0.60;0.50;;;;;;;;;;5006731;28;20069;-62
2024/03/29 09:16:53;;;;;;;0.60;0.60;;;;;;;;;;5005350;28;20491;-60
2024/03/29 09:19:21;;;;;;;1.98;0.60;;;;;;;;;;5006186;28;20057;-60
2024/03/29 09:21:48;;;;;;;0.63;0.63;;;;;;;;;;5003248;28;20077;-63
2024/03/29 09:24:16;;;;;;;0.68;0.63;;;;;;;;;;5004522;28;20054;-65
2024/03/29 09:26:44;;;;;;;0.50;0.50;;;;;;;;;;5002884;28;20394;-68
2024/03/29 09:29:13;;;;;;;1.15;0.50;;;;;;;;;;5004087;28;20053;-61
2024/03/29 09:31:41;;;;;;;0.70;0.60;;;;;;;;;;5002266;28;20468;-63
2024/03/29 09:34:09;;;;;;;0.50;0.50;;;;;;;;;;5002425;28;20103;-64
2024/03/29 09:36:36;;;;;;;0.65;0.50;;;;;;;;;;5010239;28;20381;-63
2024/03/29 09:39:05;;;;;;;0.50;0.50;;;;;;;;;;5005277;28;20581;-60
2024/03/29 09:41:35;;;;;;;3.50;0.90;;;;;;;;;;5005385;28;20050;-64
2024/03/29 09:44:04;;;;;;;0.60;0.50;;;;;;;;;;5005823;28;20054;-66
2024/03/29 09:46:32;;;;;;;0.60;0.60;;;;;;;;;;5003930;28;20060;-65
2024/03/29 09:49:03;;;;;;;0.80;0.60;;;;;;;;;;5004196;28;20298;-62
2024/03/29 09:51:31;;;;;;;0.57;0.52;;;;;;;;;;5003321;28;20064;-60
2024/03/29 09:53:59;;;;;;;1.45;0.80;;;;;;;;;;5003850;28;20070;-63
2024/03/29 09:56:27;;;;;;;0.70;0.70;;;;;;;;;;5003011;28;20491;-63
2024/03/29 09:58:54;;;;;;;0.70;0.60;;;;;;;;;;5017689;28;20064;-64
2024/03/29 10:01:22;;;;;;;0.70;0.50;;;;;;;;;;5009578;28;20122;-61
2024/03/29 10:03:50;;;;;;;0.70;0.60;;;;;;;;;;5009189;28;20079;-63
2024/03/29 10:06:20;;;;;;;0.45;0.45;;;;;;;;;;5003172;28;20429;-62
2024/03/29 10:08:48;;;;;;;0.90;0.50;;;;;;;;;;5000256;28;20065;-60
2024/03/29 10:11:18;;;;;;;0.50;0.50;;;;;;;;;;5002182;28;20300;-64
2024/03/29 10:13:45;;;;;;;0.50;0.50;;;;;;;;;;5001892;28;20086;-61
2024/03/29 10:16:13;;;;;;;0.50;0.40;;;;;;;;;;5002903;28;20087;-62
2024/03/29 10:18:43;;;;;;;0.82;0.60;;;;;;;;;;5000378;28;20107;-64
2024/03/29 10:21:11;;;;;;;1.13;0.68;;;;;;;;;;5000669;28;20506;-63
2024/03/29 10:23:41;;;;;;;0.73;0.63;;;;;;;;;;5001648;28;20057;-63
2024/03/29 10:26:08;;;;;;;0.65;0.50;;;;;;;;;;5002562;28;20158;-65
2024/03/29 10:28:36;;;;;;;0.63;0.50;;;;;;;;;;5002921;28;20054;-61
2024/03/29 10:31:04;;;;;;;0.82;0.57;;;;;;;;;;5001621;28;20370;-68
2024/03/29 10:33:32;;;;;;;1.52;0.32;;;;;;;;;;5003136;28;20050;-64
2024/03/29 10:36:00;;;;;;;0.50;0.50;;;;;;;;;;4998577;28;20087;-61
2024/03/29 10:38:28;;;;;;;0.57;0.50;;;;;;;;;;5002269;28;20443;-67
2024/03/29 10:40:57;;;;;;;0.52;0.50;;;;;;;;;;5002274;28;20042;-65
2024/03/29 10:43:25;;;;;;;0.70;0.60;;;;;;;;;;5004200;28;20046;-62
2024/03/29 10:45:55;;;;;;;0.55;0.50;;;;;;;;;;5002232;28;20050;-61
2024/03/29 10:48:23;;;;;;;0.75;0.50;;;;;;;;;;5002564;28;20543;-65
2024/03/29 10:50:52;;;;;;;0.50;0.50;;;;;;;;;;5001591;28;20058;-66
2024/03/29 10:53:19;;;;;;;0.35;0.35;;;;;;;;;;5003021;28;20510;-61
2024/03/29 10:55:47;;;;;;;0.52;0.40;;;;;;;;;;5001519;28;20053;-62
2024/03/29 10:58:19;;;;;;;0.50;0.35;;;;;;;;;;5002130;28;20511;-64
2024/03/29 11:00:47;;;;;;;0.32;0.32;;;;;;;;;;5001488;28;20115;-68
2024/03/29 11:03:16;;;;;;;0.50;0.30;;;;;;;;;;5002049;28;20517;-63
2024/03/29 11:05:46;;;;;;;2.08;0.70;;;;;;;;;;5003549;28;20050;-64
2024/03/29 11:08:15;;;;;;;2.83;0.70;;;;;;;;;;5002754;28;20466;-61
2024/03/29 11:10:45;;;;;;;0.40;0.40;;;;;;;;;;4994350;28;20099;-63
2024/03/29 11:13:17;;;;;;;0.60;0.50;;;;;;;;;;5003053;28;20058;-62
2024/03/29 11:15:46;;;;;;;0.40;0.40;;;;;;;;;;5002557;28;20078;-67
2024/03/29 11:18:16;;;;;;;0.68;0.40;;;;;;;;;;5001065;28;20099;-66
2024/03/29 11:20:49;;;;;;;1.00;0.50;;;;;;;;;;5002645;28;20057;-62
2024/03/29 11:23:17;;;;;;;0.50;0.50;;;;;;;;;;5001022;28;20531;-61
2024/03/29 11:25:46;;;;;;;1.50;0.40;;;;;;;;;;5001231;28;20437;-62
2024/03/29 11:28:21;;;;;;;0.55;0.40;;;;;;;;;;5002601;28;20444;-65
2024/03/29 11:30:51;;;;;;;1.00;0.70;;;;;;;;;;5001985;28;20421;-61
2024/03/29 11:33:31;;;;;;;0.47;0.47;;;;;;;;;;5002800;28;20120;-64
2024/03/29 11:35:59;;;;;;;0.40;0.40;;;;;;;;;;5000356;28;20080;-62
2024/03/29 11:38:34;;;;;;;0.38;0.38;;;;;;;;;;5002459;28;20528;-64
2024/03/29 11:41:05;;;;;;;0.40;0.40;;;;;;;;;;5001649;28;20061;-63
2024/03/29 11:43:32;;;;;;;0.90;0.40;;;;;;;;;;5001709;28;20575;-62
2024/03/29 11:46:02;;;;;;;1.50;0.40;;;;;;;;;;5007662;28;20046;-60
2024/03/29 11:48:30;;;;;;;0.35;0.35;;;;;;;;;;5002711;28;20061;-65
2024/03/29 11:50:58;;;;;;;0.40;0.40;;;;;;;;;;5004662;28;20062;-65
2024/03/29 11:53:27;;;;;;;0.77;0.40;;;;;;;;;;5018224;28;20045;-62
2024/03/29 11:55:54;;;;;;;0.30;0.30;;;;;;;;;;5001509;28;20592;-63
2024/03/29 11:58:23;;;;;;;0.47;0.38;;;;;;;;;;5003234;28;20050;-63
2024/03/29 12:00:51;;;;;;;0.60;0.60;;;;;;;;;;5005493;28;20052;-65
2024/03/29 12:03:21;;;;;;;1.40;0.60;;;;;;;;;;5004732;28;20046;-61
2024/03/29 12:05:50;;;;;;;0.63;0.55;;;;;;;;;;5006737;28;20050;-67
2024/03/29 12:08:18;;;;;;;0.45;0.43;;;;;;;;;;5006522;28;20062;-60
2024/03/29 12:10:45;;;;;;;0.50;0.40;;;;;;;;;;5005059;28;20521;-62
2024/03/29 12:13:14;;;;;;;1.13;0.40;;;;;;;;;;5006757;28;20049;-65
2024/03/29 12:15:42;;;;;;;0.40;0.40;;;;;;;;;;5007066;28;20050;-63
2024/03/29 12:18:09;;;;;;;0.40;0.40;;;;;;;;;;5006112;28;20058;-68
2024/03/29 12:20:38;;;;;;;0.55;0.40;;;;;;;;;;5006791;28;20077;-61
2024/03/29 12:23:06;;;;;;;0.60;0.40;;;;;;;;;;5005996;28;20556;-61
2024/03/29 12:25:34;;;;;;;0.40;0.40;;;;;;;;;;4996996;28;20145;-63
2024/03/29 12:28:02;;;;;;;0.30;0.30;;;;;;;;;;5003906;28;20054;-63
2024/03/29 12:30:30;;;;;;;1.05;0.50;;;;;;;;;;5006929;28;20325;-62
2024/03/29 12:33:04;;;;;;;1.08;0.73;;;;;;;;;;5006263;28;20049;-63
2024/03/29 12:35:31;;;;;;;0.52;0.40;;;;;;;;;;5007467;28;20054;-63
2024/03/29 12:38:01;;;;;;;0.40;0.40;;;;;;;;;;5003695;28;20042;-69
2024/03/29 12:40:29;;;;;;;0.52;0.38;;;;;;;;;;4999868;28;20042;-65
2024/03/29 12:42:58;;;;;;;1.00;0.35;;;;;;;;;;5005726;28;20049;-67
2024/03/29 12:45:26;;;;;;;0.50;0.40;;;;;;;;;;5009753;28;20057;-62
2024/03/29 12:47:54;;;;;;;0.30;0.30;;;;;;;;;;5003564;28;20038;-65
2024/03/29 12:50:26;;;;;;;1.27;0.30;;;;;;;;;;5006447;28;20057;-68
2024/03/29 12:52:56;;;;;;;0.20;0.20;;;;;;;;;;5006093;28;20091;-65
2024/03/29 12:55:28;;;;;;;0.43;0.20;;;;;;;;;;5007486;28;20333;-63
2024/03/29 12:57:55;;;;;;;0.20;0.20;;;;;;;;;;5006529;28;20042;-63
2024/03/29 13:00:23;;;;;;;0.20;0.20;;;;;;;;;;5004986;28;20525;-63
2024/03/29 13:02:50;;;;;;;0.30;0.30;;;;;;;;;;5006330;28;20057;-65
2024/03/29 13:05:18;;;;;;;0.90;0.60;;;;;;;;;;5005204;28;20426;-67
2024/03/29 13:07:45;;;;;;;0.20;0.20;;;;;;;;;;5005456;28;20050;-66
2024/03/29 13:10:14;;;;;;;0.20;0.20;;;;;;;;;;5003315;28;20058;-62
2024/03/29 13:12:43;;;;;;;0.45;0.30;;;;;;;;;;5003143;28;20046;-62
2024/03/29 13:15:18;;;;;;;0.20;0.20;;;;;;;;;;5005557;28;20085;-67
2024/03/29 13:17:47;;;;;;;0.38;0.35;;;;;;;;;;5005306;28;20085;-66
2024/03/29 13:20:15;;;;;;;0.30;0.30;;;;;;;;;;5005620;28;20406;-64
2024/03/29 13:22:44;;;;;;;0.20;0.20;;;;;;;;;;5006081;28;20251;-63
2024/03/29 13:25:12;;;;;;;0.20;0.20;;;;;;;;;;5005095;28;20046;-66
2024/03/29 13:27:39;;;;;;;0.30;0.30;;;;;;;;;;5004563;28;20042;-67
2024/03/29 13:30:09;;;;;;;0.20;0.20;;;;;;;;;;5004066;28;20058;-65
2024/03/29 13:32:37;;;;;;;0.20;0.20;;;;;;;;;;5005856;28;20054;-68
2024/03/29 13:35:05;;;;;;;2.75;0.20;;;;;;;;;;5003929;28;20053;-64
2024/03/29 13:37:33;;;;;;;0.20;0.20;;;;;;;;;;5005904;28;20045;-62
2024/03/29 13:40:00;;;;;;;0.20;0.20;;;;;;;;;;5004666;28;20440;-64
2024/03/29 13:42:28;;;;;;;0.20;0.20;;;;;;;;;;5005377;28;20061;-72
2024/03/29 13:44:55;;;;;;;0.20;0.20;;;;;;;;;;5005487;28;20062;-68
2024/03/29 13:47:24;;;;;;;0.20;0.20;;;;;;;;;;5005127;28;20099;-66
2024/03/29 13:49:52;;;;;;;0.30;0.30;;;;;;;;;;4998107;28;20057;-65
2024/03/29 13:52:20;;;;;;;0.20;0.20;;;;;;;;;;5006505;28;20391;-63
2024/03/29 13:54:48;;;;;;;0.20;0.20;;;;;;;;;;5004425;28;20551;-65
2024/03/29 13:57:15;;;;;;;0.20;0.20;;;;;;;;;;5005536;28;20490;-64
2024/03/29 13:59:44;;;;;;;0.45;0.30;;;;;;;;;;5005673;28;20349;-67
2024/03/29 14:02:13;;;;;;;0.20;0.20;;;;;;;;;;5006887;28;20058;-63
2024/03/29 14:04:42;;;;;;;0.30;0.30;;;;;;;;;;5004893;28;20473;-63
2024/03/29 14:07:11;;;;;;;0.50;0.50;;;;;;;;;;5005617;28;20050;-69
2024/03/29 14:09:38;;;;;;;0.90;0.50;;;;;;;;;;5005041;28;20042;-68
2024/03/29 14:12:06;;;;;;;0.73;0.30;;;;;;;;;;5005636;28;20111;-63
2024/03/29 14:14:33;;;;;;;0.30;0.30;;;;;;;;;;5006310;28;20567;-63
2024/03/29 14:17:03;;;;;;;0.30;0.30;;;;;;;;;;5005235;28;20054;-63
2024/03/29 14:19:31;;;;;;;0.20;0.20;;;;;;;;;;5006366;28;20061;-68
2024/03/29 14:22:00;;;;;;;0.20;0.20;;;;;;;;;;5005503;28;20045;-71
2024/03/29 14:24:30;;;;;;;0.30;0.30;;;;;;;;;;5005273;28;20060;-63
2024/03/29 14:26:57;;;;;;;0.30;0.30;;;;;;;;;;5006134;28;20049;-64
2024/03/29 14:29:25;;;;;;;0.30;0.30;;;;;;;;;;5003822;28;20464;-65
2024/03/29 14:31:54;;;;;;;0.35;0.35;;;;;;;;;;5005655;28;20057;-64
2024/03/29 14:34:22;;;;;;;0.22;0.22;;;;;;;;;;5005090;28;20544;-63
2024/03/29 14:36:50;;;;;;;0.30;0.30;;;;;;;;;;5004311;28;20037;-71
2024/03/29 14:39:20;;;;;;;0.20;0.20;;;;;;;;;;5005926;28;20407;-63
2024/03/29 14:41:50;;;;;;;0.30;0.30;;;;;;;;;;5005747;28;20053;-71
2024/03/29 14:44:17;;;;;;;0.20;0.20;;;;;;;;;;5004873;28;20050;-72
2024/03/29 14:46:45;;;;;;;0.20;0.20;;;;;;;;;;5004652;28;20052;-63
2024/03/29 14:49:13;;;;;;;0.40;0.30;;;;;;;;;;5024727;28;20057;-69
2024/03/29 14:51:41;;;;;;;0.20;0.20;;;;;;;;;;5005681;28;20057;-60
2024/03/29 14:54:08;;;;;;;0.40;0.40;;;;;;;;;;5006822;28;20387;-63
2024/03/29 14:56:37;;;;;;;0.38;0.38;;;;;;;;;;5005161;28;20045;-61
2024/03/29 14:59:05;;;;;;;0.60;0.60;;;;;;;;;;5014374;28;20062;-75
2024/03/29 15:01:33;;;;;;;0.57;0.57;;;;;;;;;;5005257;28;20058;-67
2024/03/29 15:04:01;;;;;;;0.50;0.50;;;;;;;;;;5004007;28;20507;-65
2024/03/29 15:06:29;;;;;;;0.60;0.60;;;;;;;;;;5004020;28;20402;-63
2024/03/29 15:08:57;;;;;;;0.60;0.60;;;;;;;;;;5001305;28;20506;-62
2024/03/29 15:11:24;;;;;;;1.60;1.20;;;;;;;;;;5002787;28;20074;-67
2024/03/29 15:13:53;;;;;;;0.43;0.43;;;;;;;;;;5001286;28;20419;-61
2024/03/29 15:16:21;;;;;;;0.40;0.40;;;;;;;;;;5003443;28;20045;-63
2024/03/29 15:18:48;;;;;;;0.30;0.30;;;;;;;;;;5004494;28;20050;-66
2024/03/29 15:21:17;;;;;;;2.03;0.40;;;;;;;;;;5005382;28;20050;-62
2024/03/29 15:23:45;;;;;;;1.40;1.20;;;;;;;;;;5004508;28;20395;-61
2024/03/29 15:26:12;;;;;;;0.40;0.40;;;;;;;;;;5003114;28;20053;-61
2024/03/29 15:31:27;;;;;;;0.30;0.30;;;;;;;;;;4999604;28;20521;-63
2024/03/29 15:33:54;;;;;;;0.40;0.40;;;;;;;;;;5005584;28;20061;-64
2024/03/29 15:36:22;;;;;;;0.30;0.30;;;;;;;;;;5005472;28;20042;-63
2024/03/29 15:38:50;;;;;;;0.30;0.30;;;;;;;;;;5004165;28;20119;-62
2024/03/29 15:41:18;;;;;;;0.30;0.30;;;;;;;;;;5007428;28;20054;-63
2024/03/29 15:43:45;;;;;;;0.43;0.32;;;;;;;;;;5006180;28;20049;-63
2024/03/29 15:46:13;;;;;;;0.43;0.40;;;;;;;;;;5021984;28;20050;-64
2024/03/29 15:48:41;;;;;;;0.28;0.28;;;;;;;;;;5005747;28;20061;-65
2024/03/29 15:51:10;;;;;;;0.93;0.40;;;;;;;;;;5007794;28;20053;-62
2024/03/29 15:53:37;;;;;;;0.80;0.43;;;;;;;;;;5006470;28;20499;-62
2024/03/29 15:56:07;;;;;;;0.40;0.30;;;;;;;;;;5007030;28;20046;-62
2024/03/29 15:58:34;;;;;;;0.63;0.63;;;;;;;;;;5003957;28;20058;-63
2024/03/29 16:01:03;;;;;;;0.32;0.30;;;;;;;;;;5004925;28;20041;-64
2024/03/29 16:03:31;;;;;;;2.38;0.40;;;;;;;;;;5006868;28;20045;-63
2024/03/29 16:06:00;;;;;;;2.53;0.50;;;;;;;;;;5007445;28;20110;-65
2024/03/29 16:08:27;;;;;;;0.73;0.35;;;;;;;;;;5006804;28;20486;-62
2024/03/29 16:10:55;;;;;;;1.65;0.65;;;;;;;;;;5008045;28;20058;-64
2024/03/29 16:13:23;;;;;;;0.93;0.47;;;;;;;;;;5007929;28;20410;-71
2024/03/29 16:15:50;;;;;;;1.95;0.57;;;;;;;;;;5005787;28;20054;-67
2024/03/29 16:18:17;;;;;;;4.50;0.80;;;;;;;;;;5006982;28;20061;-66
2024/03/29 16:20:45;;;;;;;3.05;0.43;;;;;;;;;;5007710;28;20364;-61
2024/03/29 16:23:13;;;;;;;3.45;0.60;;;;;;;;;;5007063;28;20046;-61
2024/03/29 16:25:43;;;;;;;6.80;1.52;;;;;;;;;;5006422;28;20065;-62
2024/03/29 16:28:11;;;;;;;8.10;1.15;;;;;;;;;;5002148;28;20042;-66
2024/03/29 16:30:37;;;;;;;2.17;1.02;;;;;;;;;;5004401;28;20062;-62
2024/03/29 16:33:05;;;;;;;1.50;0.70;;;;;;;;;;5005971;28;20061;-62
2024/03/29 16:35:32;;;;;;;2.17;0.98;;;;;;;;;;5006450;28;20102;-61
2024/03/29 16:37:59;;;;;;;4.35;1.98;;;;;;;;;;5005864;28;20062;-62
2024/03/29 16:40:27;;;;;;;6.63;1.58;;;;;;;;;;5005020;28;20482;-62
2024/03/29 16:42:55;;;;;;;6.93;1.00;;;;;;;;;;5004170;28;20098;-65